sensor_id;sensor_type;location;lat;lon;timestamp;P1;durP1;ratioP1;P2;durP2;ratioP2
76710;SDS011;65639;44.498;0.166;2023-04-03T00:05:18;4.90;;;1.93;;
76710;SDS011;65639;44.498;0.166;2023-04-03T00:25:46;-1.00;;;-1.00;;
76710;SDS011;65639;44.498;0.166;2023-04-03T00:46:13;2.93;;;1.20;;
76710;SDS011;65639;44.498;0.166;2023-04-03T01:06:43;2.43;;;1.57;;
76710;SDS011;65639;44.498;0.166;2023-04-03T01:27:13;1.63;;;1.43;;
76710;SDS011;65639;44.498;0.166;2023-04-03T01:47:41;4.03;;;1.37;;
76710;SDS011;65639;44.498;0.166;2023-04-03T02:08:09;3.43;;;1.60;;
76710;SDS011;65639;44.498;0.166;2023-04-03T02:28:37;-1.00;;;-1.00;;
76710;SDS011;65639;44.498;0.166;2023-04-03T02:49:07;4.07;;;1.80;;
76710;SDS011;65639;44.498;0.166;2023-04-03T03:09:35;3.43;;;2.07;;
76710;SDS011;65639;44.498;0.166;2023-04-03T03:30:04;6.73;;;2.73;;
76710;SDS011;65639;44.498;0.166;2023-04-03T03:50:31;2.70;;;1.70;;
76710;SDS011;65639;44.498;0.166;2023-04-03T04:11:00;2.17;;;1.93;;
76710;SDS011;65639;44.498;0.166;2023-04-03T04:31:29;2.93;;;2.63;;
76710;SDS011;65639;44.498;0.166;2023-04-03T04:51:57;2.80;;;2.23;;
76710;SDS011;65639;44.498;0.166;2023-04-03T05:12:25;4.40;;;2.50;;
76710;SDS011;65639;44.498;0.166;2023-04-03T05:32:53;5.37;;;3.13;;
76710;SDS011;65639;44.498;0.166;2023-04-03T05:53:22;7.63;;;3.57;;
76710;SDS011;65639;44.498;0.166;2023-04-03T06:13:49;5.60;;;2.57;;
76710;SDS011;65639;44.498;0.166;2023-04-03T06:34:18;9.50;;;3.20;;
76710;SDS011;65639;44.498;0.166;2023-04-03T06:54:48;7.47;;;2.40;;
76710;SDS011;65639;44.498;0.166;2023-04-03T07:15:16;4.37;;;2.53;;
76710;SDS011;65639;44.498;0.166;2023-04-03T07:35:45;4.90;;;2.20;;
76710;SDS011;65639;44.498;0.166;2023-04-03T07:56:16;8.23;;;2.13;;
76710;SDS011;65639;44.498;0.166;2023-04-03T08:16:47;6.87;;;2.10;;
76710;SDS011;65639;44.498;0.166;2023-04-03T08:37:18;7.67;;;1.60;;
76710;SDS011;65639;44.498;0.166;2023-04-03T08:57:47;3.90;;;1.60;;
76710;SDS011;65639;44.498;0.166;2023-04-03T09:18:19;3.10;;;1.33;;
76710;SDS011;65639;44.498;0.166;2023-04-03T09:59:15;4.27;;;1.30;;
76710;SDS011;65639;44.498;0.166;2023-04-03T10:19:42;3.90;;;1.20;;
76710;SDS011;65639;44.498;0.166;2023-04-03T10:40:15;3.83;;;1.30;;
76710;SDS011;65639;44.498;0.166;2023-04-03T11:00:43;3.60;;;1.43;;
76710;SDS011;65639;44.498;0.166;2023-04-03T11:21:14;4.00;;;1.00;;
76710;SDS011;65639;44.498;0.166;2023-04-03T11:41:42;4.23;;;0.90;;
76710;SDS011;65639;44.498;0.166;2023-04-03T12:22:43;1.93;;;0.70;;
76710;SDS011;65639;44.498;0.166;2023-04-03T12:43:17;2.73;;;0.70;;
76710;SDS011;65639;44.498;0.166;2023-04-03T13:03:43;1.10;;;0.50;;
76710;SDS011;65639;44.498;0.166;2023-04-03T13:24:06;2.87;;;0.73;;
76710;SDS011;65639;44.498;0.166;2023-04-03T13:44:36;2.53;;;0.90;;
76710;SDS011;65639;44.498;0.166;2023-04-03T14:05:09;2.80;;;0.80;;
76710;SDS011;65639;44.498;0.166;2023-04-03T14:25:37;1.40;;;0.50;;
76710;SDS011;65639;44.498;0.166;2023-04-03T14:46:03;0.80;;;0.60;;
76710;SDS011;65639;44.498;0.166;2023-04-03T15:06:29;1.67;;;1.20;;
76710;SDS011;65639;44.498;0.166;2023-04-03T15:26:55;1.87;;;1.10;;
76710;SDS011;65639;44.498;0.166;2023-04-03T15:47:22;1.37;;;1.10;;
76710;SDS011;65639;44.498;0.166;2023-04-03T16:07:47;2.40;;;1.20;;
76710;SDS011;65639;44.498;0.166;2023-04-03T16:28:13;1.43;;;0.80;;
76710;SDS011;65639;44.498;0.166;2023-04-03T16:48:40;1.20;;;0.90;;
76710;SDS011;65639;44.498;0.166;2023-04-03T17:09:09;2.17;;;1.20;;
76710;SDS011;65639;44.498;0.166;2023-04-03T17:29:36;1.53;;;1.20;;
76710;SDS011;65639;44.498;0.166;2023-04-03T17:50:05;1.30;;;1.20;;
76710;SDS011;65639;44.498;0.166;2023-04-03T18:10:32;2.43;;;1.47;;
76710;SDS011;65639;44.498;0.166;2023-04-03T18:31:01;-1.00;;;-1.00;;
76710;SDS011;65639;44.498;0.166;2023-04-03T18:51:27;2.50;;;2.03;;
76710;SDS011;65639;44.498;0.166;2023-04-03T19:11:56;2.10;;;1.80;;
76710;SDS011;65639;44.498;0.166;2023-04-03T19:32:23;2.80;;;2.20;;
76710;SDS011;65639;44.498;0.166;2023-04-03T19:52:51;4.30;;;2.67;;
76710;SDS011;65639;44.498;0.166;2023-04-03T20:13:18;6.60;;;3.50;;
76710;SDS011;65639;44.498;0.166;2023-04-03T20:33:48;7.17;;;4.93;;
76710;SDS011;65639;44.498;0.166;2023-04-03T20:54:14;6.17;;;4.00;;
76710;SDS011;65639;44.498;0.166;2023-04-03T21:35:12;4.83;;;3.43;;
76710;SDS011;65639;44.498;0.166;2023-04-03T21:55:40;4.80;;;3.23;;
76710;SDS011;65639;44.498;0.166;2023-04-03T22:16:08;6.50;;;3.50;;
76710;SDS011;65639;44.498;0.166;2023-04-03T22:36:36;6.77;;;3.33;;
76710;SDS011;65639;44.498;0.166;2023-04-03T22:57:04;5.27;;;3.77;;
76710;SDS011;65639;44.498;0.166;2023-04-03T23:17:32;3.90;;;3.20;;
76710;SDS011;65639;44.498;0.166;2023-04-03T23:38:00;3.67;;;2.50;;
76710;SDS011;65639;44.498;0.166;2023-04-03T23:58:29;3.83;;;2.70;;
